Time;durP1;ratioP1;P1;durP2;ratioP2;P2;SDS_P1;SDS_P2;PMS_P1;PMS_P2;Temp;Humidity;BMP_temperature;BMP_pressure;BME280_temperature;BME280_humidity;BME280_pressure;Samples;Min_cycle;Max_cycle;Signal;HPM_P1;HPM_P2
2022/06/02 04:43:40;;;;;;;;;7.50;6.50;;;;;15.69;46.97;101684.59;2747473;23;46037;-94
2022/06/02 04:45:16;;;;;;;;;7.75;6.00;;;;;15.73;46.82;101686.19;2402657;28;45595;-95
2022/06/02 04:46:34;;;;;;;;;8.25;7.50;;;;;15.76;47.16;101685.22;2392086;28;47482;-93
2022/06/02 04:47:59;;;;;;;;;8.00;7.25;;;;;15.80;46.60;101683.31;2403064;28;45370;-93
2022/06/02 04:49:12;;;;;;;;;7.00;6.00;;;;;15.81;47.07;101688.53;2395494;28;46855;-93
2022/06/02 04:50:50;;;;;;;;;7.50;7.50;;;;;15.85;46.89;101684.84;2409910;28;45415;-94
2022/06/02 04:52:03;;;;;;;;;6.50;6.50;;;;;15.86;46.76;101694.53;2412559;28;45681;-92
2022/06/02 04:53:42;;;;;;;;;8.25;6.50;;;;;15.86;46.72;101693.66;2409987;28;44737;-94
2022/06/02 04:55:22;;;;;;;;;6.00;6.00;;;;;15.87;47.20;101692.75;2404840;28;48317;-91
2022/06/02 04:57:05;;;;;;;;;9.50;8.00;;;;;15.89;46.74;101688.25;2402067;28;44675;-92
2022/06/02 04:58:21;;;;;;;;;6.50;6.50;;;;;15.90;46.78;101684.66;2407162;28;46415;-94
2022/06/02 04:59:52;;;;;;;;;6.00;6.00;;;;;15.89;47.04;101690.91;2397262;28;45348;-91
2022/06/02 05:01:18;;;;;;;;;9.50;7.25;;;;;15.92;46.95;101692.56;2410217;28;47329;-91
2022/06/02 05:02:31;;;;;;;;;9.50;8.25;;;;;15.90;46.63;101687.31;2408298;28;45401;-91
2022/06/02 05:03:54;;;;;;;;;6.00;6.00;;;;;15.91;46.90;101694.34;2397635;28;47288;-90
2022/06/02 05:05:16;;;;;;;;;10.25;8.25;;;;;15.90;46.80;101681.16;2398578;28;45380;-90
2022/06/02 05:06:50;;;;;;;;;7.00;7.00;;;;;15.91;46.92;101683.75;2405679;28;45589;-91
2022/06/02 05:08:06;;;;;;;;;7.25;6.00;;;;;15.90;47.05;101682.00;2419672;28;45307;-90
2022/06/02 05:09:35;;;;;;;;;10.00;7.50;;;;;15.92;47.27;101684.59;2405834;28;47351;-88
2022/06/02 05:11:03;;;;;;;;;7.25;7.25;;;;;15.95;46.95;101685.34;2399865;28;45284;-88
2022/06/02 05:13:04;;;;;;;;;8.00;7.25;;;;;16.02;46.98;101690.41;2408358;28;47126;-88
2022/06/02 05:14:28;;;;;;;;;7.75;6.00;;;;;16.04;47.33;101685.88;2396035;28;45161;-87
2022/06/02 05:15:57;;;;;;;;;9.50;9.50;;;;;16.07;46.81;101680.50;2413610;28;45329;-86
2022/06/02 05:17:21;;;;;;;;;6.00;6.00;;;;;16.08;46.85;101679.56;2413867;28;44588;-86
2022/06/02 05:19:05;;;;;;;;;7.25;7.25;;;;;16.13;46.88;101688.19;2420967;28;47306;-87
2022/06/02 05:20:21;;;;;;;;;6.00;6.00;;;;;16.16;47.39;101688.06;2400366;28;45288;-88
2022/06/02 05:22:04;;;;;;;;;10.00;8.25;;;;;16.18;47.11;101686.22;2407643;28;46361;-87
2022/06/02 05:23:40;;;;;;;;;8.25;7.25;;;;;16.22;46.71;101683.44;2401516;28;45355;-88
2022/06/02 05:25:18;;;;;;;;;8.00;8.00;;;;;16.27;46.60;101681.47;2404116;28;45544;-87
2022/06/02 05:27:02;;;;;;;;;10.75;9.75;;;;;16.29;46.87;101677.81;2412860;28;45233;-87
2022/06/02 05:28:34;;;;;;;;;8.50;7.75;;;;;16.28;46.57;101684.03;2403995;28;46356;-87
2022/06/02 05:30:03;;;;;;;;;6.25;6.25;;;;;16.28;46.86;101680.50;2411584;28;45317;-88
2022/06/02 05:31:28;;;;;;;;;10.00;8.00;;;;;16.30;46.80;101683.97;2405237;28;45636;-88
2022/06/02 05:33:01;;;;;;;;;7.50;7.50;;;;;16.35;46.97;101684.63;2405390;28;45623;-88
2022/06/02 05:34:36;;;;;;;;;8.25;7.50;;;;;16.39;46.76;101683.59;2411341;28;47045;-89
2022/06/02 05:36:17;;;;;;;;;8.25;8.25;;;;;16.43;46.67;101676.34;2408374;28;44604;-88
2022/06/02 05:37:49;;;;;;;;;9.75;9.25;;;;;16.42;46.53;101672.81;2405668;28;47151;-88
2022/06/02 05:39:08;;;;;;;;;8.50;7.50;;;;;16.45;46.57;101676.28;2400365;28;45397;-88
2022/06/02 05:40:35;;;;;;;;;9.25;9.00;;;;;16.46;46.51;101672.69;2397986;28;47150;-88
2022/06/02 05:41:48;;;;;;;;;8.25;8.25;;;;;16.49;46.32;101680.53;2403105;28;45428;-89
2022/06/02 05:43:05;;;;;;;;;9.00;9.00;;;;;16.50;46.40;101677.81;2403249;28;46318;-88
2022/06/02 05:44:42;;;;;;;;;9.00;9.00;;;;;16.50;46.13;101679.59;2402812;28;45241;-87
2022/06/02 05:45:55;;;;;;;;;9.75;8.00;;;;;16.51;46.66;101676.03;2402832;28;45506;-88
2022/06/02 05:47:17;;;;;;;;;10.50;9.00;;;;;16.54;46.66;101678.56;2399377;28;45330;-87
2022/06/02 05:48:45;;;;;;;;;5.00;5.00;;;;;16.57;46.52;101682.88;2405212;28;45367;-88
2022/06/02 05:50:30;;;;;;;;;11.00;8.00;;;;;16.61;46.82;101687.97;2416212;28;45176;-89
2022/06/02 05:52:10;;;;;;;;;13.50;9.25;;;;;16.61;46.11;101684.44;2399259;28;47999;-87
2022/06/02 05:53:45;;;;;;;;;9.00;8.50;;;;;16.62;46.73;101680.84;2398429;28;45432;-87
2022/06/02 05:55:24;;;;;;;;;9.00;9.00;;;;;16.65;46.16;101686.91;2407326;28;48152;-88
2022/06/02 05:56:53;;;;;;;;;9.25;8.50;;;;;16.65;46.37;101686.03;2401683;28;45180;-89
2022/06/02 05:58:25;;;;;;;;;9.25;9.25;;;;;16.65;46.44;101683.38;2413324;28;45240;-88
2022/06/02 05:59:51;;;;;;;;;7.75;7.75;;;;;16.67;46.55;101681.50;2415590;28;45480;-87
2022/06/02 06:01:23;;;;;;;;;9.25;8.00;;;;;16.71;46.12;101677.81;2407332;28;45561;-87
2022/06/02 06:02:58;;;;;;;;;7.25;7.25;;;;;16.73;46.32;101680.38;2401747;28;45375;-86
2022/06/02 06:04:25;;;;;;;;;8.75;8.75;;;;;16.72;46.41;101668.03;2401535;28;46417;-88
2022/06/02 06:05:50;;;;;;;;;7.75;7.75;;;;;16.74;46.27;101674.16;2412403;28;45241;-87
2022/06/02 06:07:22;;;;;;;;;8.50;7.50;;;;;16.72;45.88;101676.00;2410824;28;47097;-88
2022/06/02 06:08:42;;;;;;;;;12.00;9.25;;;;;16.75;46.13;101682.06;2401188;28;45600;-88
2022/06/02 06:10:23;;;;;;;;;10.00;10.00;;;;;16.73;46.17;101677.72;2405419;28;45519;-87
2022/06/02 06:11:54;;;;;;;;;20.25;12.00;;;;;16.75;46.01;101678.53;2389400;28;44826;-88
2022/06/02 06:13:21;;;;;;;;;10.75;9.50;;;;;16.74;46.43;101688.28;2408323;28;45750;-88
2022/06/02 06:14:56;;;;;;;;;10.25;10.00;;;;;16.75;46.82;101681.19;2404302;28;45301;-88
2022/06/02 06:16:20;;;;;;;;;11.50;9.75;;;;;16.79;46.43;101680.09;2408797;28;46377;-88
2022/06/02 06:17:49;;;;;;;;;9.50;8.25;;;;;16.77;45.95;101684.63;2412447;28;45249;-88
2022/06/02 06:19:24;;;;;;;;;11.25;10.00;;;;;16.78;46.43;101683.72;2405138;28;47438;-88
2022/06/02 06:20:37;;;;;;;;;12.75;11.25;;;;;16.83;46.25;101688.81;2394488;28;45267;-88
2022/06/02 06:22:19;;;;;;;;;8.25;8.25;;;;;16.86;46.79;101686.03;2405868;28;47635;-88
2022/06/02 06:24:03;;;;;;;;;9.75;9.00;;;;;16.90;46.12;101686.72;2401508;28;45309;-90
2022/06/02 06:25:43;;;;;;;;;10.25;8.50;;;;;16.87;46.07;101691.25;2394345;28;46212;-88
2022/06/02 06:27:18;;;;;;;;;8.75;8.75;;;;;16.86;46.61;101689.53;2368308;28;45538;-88
2022/06/02 06:28:48;;;;;;;;;10.50;9.00;;;;;16.87;46.29;101688.59;2409607;28;47254;-87
2022/06/02 06:30:06;;;;;;;;;9.00;8.00;;;;;16.91;46.35;101693.78;2415285;28;45251;-87
2022/06/02 06:31:42;;;;;;;;;9.75;9.00;;;;;16.91;46.28;101685.81;2403732;28;45340;-88
2022/06/02 06:33:17;;;;;;;;;9.00;9.00;;;;;16.85;46.79;101679.84;2412363;28;45269;-88
2022/06/02 06:34:27;;;;;;;;;9.75;9.25;;;;;16.85;46.31;101685.16;2405711;28;47470;-87
2022/06/02 06:35:55;;;;;;;;;10.25;10.25;;;;;16.86;46.20;101686.91;2409208;28;46997;-87
2022/06/02 06:37:11;;;;;;;;;11.00;10.00;;;;;16.86;46.40;101681.59;2397611;28;45386;-87
2022/06/02 06:38:33;;;;;;;;;6.25;6.25;;;;;16.87;46.44;101683.28;2413295;28;45379;-88
2022/06/02 06:39:43;;;;;;;;;11.00;10.25;;;;;16.88;46.12;101689.47;2400512;28;47299;-89
2022/06/02 06:41:28;;;;;;;;;11.25;9.25;;;;;16.84;46.34;101682.59;2409084;28;44620;-90
2022/06/02 06:43:08;;;;;;;;;7.50;7.50;;;;;16.87;46.48;101690.38;2384078;28;48119;-89
2022/06/02 06:44:33;;;;;;;;;7.00;7.00;;;;;16.87;46.58;101685.94;2402413;28;45182;-90
2022/06/02 06:45:52;;;;;;;;;9.75;7.75;;;;;16.87;46.23;101682.41;2402560;28;45352;-88
2022/06/02 06:47:12;;;;;;;;;6.25;6.25;;;;;16.86;46.50;101686.03;2403707;28;45241;-90
2022/06/02 06:48:35;;;;;;;;;12.25;10.75;;;;;16.84;46.60;101693.19;2411693;28;47228;-89
2022/06/02 06:50:13;;;;;;;;;9.75;8.25;;;;;16.83;46.49;101694.13;2412275;28;44618;-89
2022/06/02 06:51:40;;;;;;;;;9.00;9.00;;;;;16.83;46.64;101700.28;2421634;28;47292;-90
2022/06/02 06:53:25;;;;;;;;;10.25;8.25;;;;;16.85;46.42;101693.13;2407687;28;45232;-89
2022/06/02 06:55:00;;;;;;;;;13.00;10.00;;;;;16.84;46.66;101688.72;2408216;28;46780;-89
2022/06/02 06:56:17;;;;;;;;;9.50;8.50;;;;;16.88;46.64;101697.44;2406737;28;45272;-91
2022/06/02 06:57:43;;;;;;;;;8.75;8.00;;;;;16.86;46.55;101694.84;2407216;28;45431;-89
2022/06/02 06:59:28;;;;;;;;;8.50;7.00;;;;;16.91;46.74;101697.31;2421451;28;45212;-90
2022/06/02 07:00:52;;;;;;;;;10.00;8.25;;;;;16.94;46.87;101698.97;2406256;28;47008;-89
2022/06/02 07:02:39;;;;;;;;;12.00;10.00;;;;;16.98;47.00;101696.09;2402676;28;45269;-90
2022/06/02 07:04:14;;;;;;;;;8.75;8.75;;;;;17.02;46.86;101699.47;2409615;28;47401;-89
2022/06/02 07:06:06;;;;;;;;;10.25;8.75;;;;;17.06;46.66;101697.53;2402728;28;45435;-87
2022/06/02 07:07:29;;;;;;;;;8.50;8.50;;;;;17.08;46.82;101695.69;2384030;28;45317;-84
2022/06/02 07:08:48;;;;;;;;;10.25;10.25;;;;;17.10;46.87;101688.50;2409609;28;45431;-88
2022/06/02 07:10:18;;;;;;;;;7.50;7.00;;;;;17.16;46.55;101695.38;2416794;28;47421;-90
2022/06/02 07:13:15;;;;;;;;;13.75;10.25;;;;;17.18;46.37;101696.16;2408377;28;45670;-90
2022/06/02 07:14:25;;;;;;;;;10.50;10.00;;;;;17.20;46.47;101694.28;2403484;28;45227;-88
2022/06/02 07:15:54;;;;;;;;;10.50;10.00;;;;;17.19;46.20;101689.88;2421082;28;47000;-88
2022/06/02 07:17:32;;;;;;;;;10.00;9.75;;;;;17.20;46.82;101699.59;2416560;28;45184;-90
2022/06/02 07:19:01;;;;;;;;;9.25;9.25;;;;;17.23;46.24;101698.59;2407604;28;47339;-90
2022/06/02 07:20:29;;;;;;;;;13.00;10.25;;;;;17.27;46.45;101692.19;2415819;28;45347;-90
2022/06/02 07:21:50;;;;;;;;;9.00;9.00;;;;;17.29;46.32;101693.84;2402343;28;48448;-89
2022/06/02 07:23:09;;;;;;;;;7.50;7.50;;;;;17.31;46.35;101691.97;2398828;28;44679;-89
2022/06/02 07:24:42;;;;;;;;;6.50;6.50;;;;;17.35;46.70;101698.03;2400424;28;47158;-89
2022/06/02 07:25:56;;;;;;;;;14.50;10.00;;;;;17.40;46.13;101695.16;2389494;28;45299;-89
2022/06/02 07:27:28;;;;;;;;;8.25;8.25;;;;;17.42;46.64;101687.97;2408138;28;45293;-89
2022/06/02 07:28:47;;;;;;;;;9.50;9.50;;;;;17.46;46.53;101692.19;2412514;28;45260;-89
2022/06/02 07:30:13;;;;;;;;;10.00;8.75;;;;;17.51;46.15;101699.94;2412577;28;45532;-90
2022/06/02 07:31:29;;;;;;;;;8.50;8.00;;;;;17.54;46.11;101692.69;2418485;28;45280;-90
2022/06/02 07:32:48;;;;;;;;;8.75;8.75;;;;;17.58;45.96;101701.38;2401804;28;46900;-87
2022/06/02 07:34:08;;;;;;;;;7.75;7.75;;;;;17.61;45.99;101693.25;2402992;28;45456;-88
2022/06/02 07:35:44;;;;;;;;;10.75;9.25;;;;;17.68;46.05;101699.13;2409311;28;47361;-89
2022/06/02 07:37:10;;;;;;;;;12.00;8.75;;;;;17.70;45.92;101694.63;2405886;28;45232;-88
2022/06/02 07:39:00;;;;;;;;;10.00;9.50;;;;;17.78;45.64;101704.88;2411748;28;47425;-88
2022/06/02 07:40:41;;;;;;;;;10.75;8.75;;;;;17.83;45.55;101704.69;2397666;28;45284;-88
2022/06/02 07:42:10;;;;;;;;;12.25;10.50;;;;;17.85;45.70;101703.63;2402924;28;46504;-89
2022/06/02 07:43:41;;;;;;;;;9.75;7.75;;;;;17.90;45.81;101702.56;2399548;28;45562;-89
2022/06/02 07:45:04;;;;;;;;;10.25;8.50;;;;;17.94;45.86;101714.78;2403292;28;47030;-90
2022/06/02 07:46:47;;;;;;;;;13.50;10.25;;;;;17.96;45.56;101705.78;2415044;28;44822;-92
2022/06/02 07:48:04;;;;;;;;;6.00;6.00;;;;;17.99;45.19;101710.97;2405951;28;45302;-90
2022/06/02 07:49:49;;;;;;;;;10.00;8.00;;;;;18.02;45.47;101711.75;2413175;28;44606;-92
2022/06/02 07:51:21;;;;;;;;;8.75;8.00;;;;;18.05;44.97;101709.78;2387517;28;46925;-92
2022/06/02 07:53:04;;;;;;;;;11.00;9.25;;;;;18.09;44.69;101710.50;2407036;28;45406;-91
2022/06/02 07:54:20;;;;;;;;;7.75;7.00;;;;;18.11;45.15;101711.28;2393419;28;48596;-91
2022/06/02 07:55:40;;;;;;;;;7.50;7.25;;;;;18.15;45.35;101712.00;2399858;28;45332;-91
2022/06/02 07:57:24;;;;;;;;;8.75;8.00;;;;;18.20;45.15;101700.22;2400379;28;46986;-92
2022/06/02 07:59:00;;;;;;;;;5.75;5.75;;;;;18.25;44.83;101692.00;2402602;28;45482;-90
2022/06/02 08:00:13;;;;;;;;;7.75;6.75;;;;;18.32;44.93;101697.88;2407803;28;46939;-91
2022/06/02 08:01:57;;;;;;;;;7.00;7.00;;;;;18.35;45.23;101694.22;2405300;28;45300;-91
2022/06/02 08:03:19;;;;;;;;;8.75;8.00;;;;;18.37;44.93;101687.84;2418905;28;47160;-91
2022/06/02 08:04:36;;;;;;;;;8.00;8.00;;;;;18.37;44.69;101690.50;2412083;28;45376;-92
2022/06/02 08:06:00;;;;;;;;;8.25;7.25;;;;;18.37;44.45;101690.50;2412364;28;45448;-90
2022/06/02 08:07:25;;;;;;;;;8.50;8.25;;;;;18.39;44.46;101691.31;2402672;28;45269;-91
2022/06/02 08:09:01;;;;;;;;;7.50;6.00;;;;;18.45;44.61;101692.78;2415691;28;46257;-92
2022/06/02 08:10:37;;;;;;;;;9.25;9.25;;;;;18.49;44.85;101688.16;2393300;28;45319;-93
2022/06/02 08:12:20;;;;;;;;;6.50;6.50;;;;;18.53;44.29;101687.06;2399546;28;47625;-92
2022/06/02 08:13:55;;;;;;;;;7.00;6.00;;;;;18.55;44.71;101683.38;2395392;28;44635;-93
2022/06/02 08:15:59;;;;;;;;;5.25;5.25;;;;;18.63;44.87;101680.31;2402549;28;46673;-92
2022/06/02 08:17:23;;;;;;;;;6.50;6.25;;;;;18.71;44.63;101676.41;2392705;28;45381;-91
2022/06/02 08:18:55;;;;;;;;;7.50;6.00;;;;;18.75;44.59;101668.16;2385598;28;47257;-91
2022/06/02 08:20:33;;;;;;;;;7.50;5.50;;;;;18.84;44.36;101671.28;2402751;28;45442;-92
2022/06/02 08:21:57;;;;;;;;;6.00;6.00;;;;;18.89;44.35;101670.06;2408511;28;45411;-92
2022/06/02 08:23:19;;;;;;;;;9.50;7.00;;;;;18.94;44.40;101674.31;2417520;28;45269;-91
2022/06/02 08:24:40;;;;;;;;;6.75;6.75;;;;;18.99;43.43;101670.44;2407221;28;45621;-92
2022/06/02 08:25:55;;;;;;;;;6.25;5.25;;;;;19.05;43.55;101666.59;2411156;28;45501;-89
2022/06/02 08:27:27;;;;;;;;;4.00;4.00;;;;;19.11;44.15;101666.25;2409110;28;47878;-92
2022/06/02 08:28:52;;;;;;;;;10.75;7.00;;;;;19.18;43.68;101658.81;2406647;28;45224;-92
2022/06/02 08:30:16;;;;;;;;;4.00;4.00;;;;;19.24;43.73;101665.59;2413440;28;47564;-91
2022/06/02 08:31:55;;;;;;;;;3.25;3.25;;;;;19.31;43.23;101652.81;2406297;28;45190;-91
2022/06/02 08:33:34;;;;;;;;;6.50;5.00;;;;;19.38;43.20;101654.19;2408241;28;45565;-92
2022/06/02 08:35:10;;;;;;;;;6.00;6.00;;;;;19.43;43.32;101646.75;2404305;28;45188;-91
2022/06/02 08:36:31;;;;;;;;;7.00;6.00;;;;;19.52;42.96;101656.06;2400521;28;46719;-92
2022/06/02 08:37:44;;;;;;;;;5.50;5.50;;;;;19.60;42.74;101644.97;2406843;28;45463;-91
2022/06/02 08:39:33;;;;;;;;;6.00;5.75;;;;;19.66;43.04;101643.75;2403563;28;47051;-92
2022/06/02 08:41:27;;;;;;;;;7.00;6.00;;;;;19.73;42.82;101647.78;2399822;28;45210;-93
2022/06/02 08:42:56;;;;;;;;;5.00;4.00;;;;;19.83;42.42;101648.09;2400954;28;45447;-94
2022/06/02 08:44:28;;;;;;;;;7.00;5.75;;;;;19.88;42.30;101642.50;2397450;28;45305;-92
2022/06/02 08:46:00;;;;;;;;;6.00;6.00;;;;;19.95;42.34;101633.19;2403500;28;45558;-92
2022/06/02 08:47:35;;;;;;;;;5.00;5.00;;;;;20.03;42.41;101640.72;2411223;28;45469;-93
2022/06/02 08:49:07;;;;;;;;;7.00;5.00;;;;;20.10;41.96;101641.25;2411482;28;45914;-92
2022/06/02 08:50:45;;;;;;;;;5.00;4.25;;;;;20.17;41.79;101642.63;2421176;28;45189;-92
2022/06/02 08:52:14;;;;;;;;;4.50;4.50;;;;;20.24;41.79;101637.78;2395083;28;48545;-92
2022/06/02 08:53:43;;;;;;;;;5.75;5.25;;;;;20.30;41.83;101631.19;2401344;28;44801;-93
2022/06/02 08:55:37;;;;;;;;;5.25;5.25;;;;;20.37;42.14;101635.22;2408338;28;46930;-92
2022/06/02 08:57:05;;;;;;;;;6.50;5.75;;;;;20.42;41.42;101633.13;2406535;28;45257;-93
2022/06/02 08:58:40;;;;;;;;;5.50;5.00;;;;;20.48;41.50;101631.03;2405284;28;48381;-91
2022/06/02 09:00:20;;;;;;;;;5.00;5.00;;;;;20.55;40.94;101627.03;2401903;28;45347;-91
2022/06/02 09:01:59;;;;;;;;;4.00;4.00;;;;;20.58;40.91;101626.84;2411100;28;47392;-93
2022/06/02 09:03:34;;;;;;;;;7.00;4.50;;;;;20.61;41.01;101629.34;2405464;28;45549;-92
2022/06/02 09:05:12;;;;;;;;;7.00;6.25;;;;;20.64;41.12;101630.97;2419513;28;47462;-92
2022/06/02 09:06:41;;;;;;;;;5.00;4.00;;;;;20.68;40.83;101630.66;2402132;28;44765;-92
2022/06/02 09:08:18;;;;;;;;;5.00;5.00;;;;;20.73;40.91;101626.84;2398207;28;47275;-93
2022/06/02 09:09:56;;;;;;;;;5.25;4.00;;;;;20.83;41.10;101629.78;2405077;28;44706;-93
2022/06/02 09:11:27;;;;;;;;;5.00;5.00;;;;;20.90;40.48;101626.66;2399229;28;47169;-91
2022/06/02 09:12:58;;;;;;;;;6.00;3.00;;;;;20.95;40.86;101628.16;2397244;28;45167;-91
2022/06/02 09:14:26;;;;;;;;;4.75;4.75;;;;;20.98;40.31;101618.16;2397664;28;47976;-92
2022/06/02 09:15:56;;;;;;;;;5.75;5.75;;;;;21.02;40.39;101629.53;2412535;28;45477;-90
2022/06/02 09:17:27;;;;;;;;;5.00;3.25;;;;;21.04;40.54;101627.59;2412705;28;47205;-89
2022/06/02 09:19:00;;;;;;;;;7.50;5.00;;;;;21.07;40.47;101638.09;2413768;28;44719;-89
2022/06/02 09:20:12;;;;;;;;;4.00;4.00;;;;;21.07;40.21;101627.41;2403412;28;47179;-90
2022/06/02 09:21:28;;;;;;;;;5.75;5.50;;;;;21.06;40.06;101627.53;2405116;28;44895;-90
2022/06/02 09:22:54;;;;;;;;;6.00;6.00;;;;;21.09;40.23;101625.50;2404811;28;45821;-92
2022/06/02 09:24:36;;;;;;;;;7.25;6.25;;;;;21.10;39.74;101631.72;2404139;28;45251;-90
2022/06/02 09:26:14;;;;;;;;;6.00;6.00;;;;;21.11;39.88;101633.44;2406870;28;47900;-90
2022/06/02 09:28:09;;;;;;;;;4.75;4.75;;;;;21.07;39.88;101627.41;2394449;28;45327;-90
2022/06/02 09:29:31;;;;;;;;;3.50;3.50;;;;;21.08;40.09;101634.50;2384166;28;47139;-90
2022/06/02 09:30:47;;;;;;;;;10.00;6.00;;;;;21.10;40.00;101634.38;2385695;28;45321;-90
2022/06/02 09:32:14;;;;;;;;;7.00;6.00;;;;;21.11;40.33;101639.63;2406618;28;45454;-89
2022/06/02 09:33:43;;;;;;;;;6.00;6.00;;;;;21.15;39.79;101637.63;2402324;28;45521;-89
2022/06/02 09:35:15;;;;;;;;;7.00;5.00;;;;;21.17;40.05;101642.84;2399900;28;47114;-91
2022/06/02 09:36:57;;;;;;;;;6.00;6.00;;;;;21.18;39.81;101645.44;2412746;28;45297;-91
2022/06/02 09:38:13;;;;;;;;;6.75;6.25;;;;;21.19;39.79;101640.94;2401925;28;47029;-91
2022/06/02 09:39:45;;;;;;;;;9.00;6.00;;;;;21.21;39.51;101636.38;2413481;28;45487;-91
2022/06/02 09:40:56;;;;;;;;;5.00;4.75;;;;;21.21;39.32;101631.03;2415673;28;46964;-93
2022/06/02 09:42:09;;;;;;;;;6.25;5.50;;;;;21.22;39.37;101635.41;2410267;28;45174;-88
2022/06/02 09:43:19;;;;;;;;;5.50;5.00;;;;;21.22;39.48;101630.91;2411752;28;47183;-89
2022/06/02 09:45:14;;;;;;;;;8.00;6.75;;;;;21.24;39.91;101633.47;2402609;28;45326;-87
2022/06/02 09:46:52;;;;;;;;;5.25;5.25;;;;;21.24;39.36;101634.34;2412825;28;47137;-92
2022/06/02 09:48:20;;;;;;;;;4.75;4.75;;;;;21.25;39.50;101630.72;2411113;28;45434;-91
2022/06/02 09:49:54;;;;;;;;;7.00;6.00;;;;;21.30;39.48;101632.22;2404573;28;45564;-90
2022/06/02 09:51:25;;;;;;;;;5.00;4.00;;;;;21.30;39.58;101637.59;2404139;28;44740;-91
2022/06/02 09:52:51;;;;;;;;;5.00;5.00;;;;;21.33;39.47;101640.94;2408154;28;45629;-91
2022/06/02 09:54:35;;;;;;;;;6.00;5.25;;;;;21.33;39.04;101637.38;2403831;28;44870;-89
2022/06/02 09:55:51;;;;;;;;;5.00;5.00;;;;;21.29;38.32;101631.38;2396400;28;45816;-88
2022/06/02 09:59:17;;;;;;;;;4.25;4.25;;;;;21.23;38.92;101624.63;2400351;28;44865;-90
2022/06/02 10:00:39;;;;;;;;;4.75;4.00;;;;;21.26;38.58;101628.88;2403141;28;45269;-89
2022/06/02 10:02:27;;;;;;;;;3.75;3.75;;;;;21.28;39.12;101621.66;2406248;28;47877;-91
2022/06/02 10:04:07;;;;;;;;;5.00;5.00;;;;;21.32;38.97;101622.28;2393912;28;45256;-90
2022/06/02 10:05:40;;;;;;;;;5.25;4.00;;;;;21.35;39.00;101624.78;2394300;28;46489;-90
2022/06/02 10:06:54;;;;;;;;;6.00;4.75;;;;;21.36;38.56;101623.81;2394241;28;45400;-90
2022/06/02 10:08:19;;;;;;;;;6.25;5.00;;;;;21.38;38.58;101621.03;2420479;28;48165;-90
2022/06/02 10:09:56;;;;;;;;;5.00;5.00;;;;;21.38;38.89;101626.41;2406235;28;45284;-89
2022/06/02 10:11:29;;;;;;;;;4.50;4.50;;;;;21.40;39.00;101619.13;2396351;28;48386;-90
2022/06/02 10:13:19;;;;;;;;;4.75;4.00;;;;;21.44;38.66;101621.50;2402925;28;45369;-89
2022/06/02 10:14:47;;;;;;;;;4.50;3.25;;;;;21.46;38.25;101616.03;2380582;28;47232;-89
2022/06/02 10:16:04;;;;;;;;;4.75;4.75;;;;;21.45;38.15;101604.50;2403607;28;45315;-89
2022/06/02 10:17:34;;;;;;;;;6.00;4.00;;;;;21.48;38.18;101609.63;2403505;28;45296;-91
2022/06/02 10:18:57;;;;;;;;;4.00;4.00;;;;;21.51;38.07;101613.91;2401951;28;45425;-91
2022/06/02 10:20:39;;;;;;;;;7.00;5.50;;;;;21.53;38.23;101606.66;2401831;28;47305;-90
2022/06/02 10:22:03;;;;;;;;;6.50;6.00;;;;;21.56;38.25;101616.28;2412211;28;45599;-90
2022/06/02 10:23:16;;;;;;;;;4.75;4.50;;;;;21.57;38.00;101608.19;2398832;28;45459;-89
2022/06/02 10:24:51;;;;;;;;;4.25;4.25;;;;;21.55;38.08;101603.88;2411939;28;44853;-90
2022/06/02 10:26:07;;;;;;;;;4.25;4.25;;;;;21.52;38.05;101607.63;2412784;28;45289;-89
2022/06/02 10:27:55;;;;;;;;;4.00;4.00;;;;;21.51;37.12;101605.06;2421350;28;44624;-88
2022/06/02 10:29:26;;;;;;;;;6.75;4.25;;;;;21.49;37.97;101599.78;2403934;28;45486;-89
2022/06/02 10:31:03;;;;;;;;;4.50;4.50;;;;;21.49;38.17;101586.44;2422082;28;45321;-89
2022/06/02 10:32:36;;;;;;;;;4.00;4.00;;;;;21.54;38.24;101592.31;2404164;28;46455;-89
2022/06/02 10:34:18;;;;;;;;;5.00;5.00;;;;;21.58;37.71;101593.81;2410306;28;45292;-89
2022/06/02 10:35:31;;;;;;;;;3.50;3.00;;;;;21.62;38.05;101601.66;2414475;28;47095;-89
2022/06/02 10:37:00;;;;;;;;;5.00;5.00;;;;;21.65;38.04;101599.66;2413882;28;45242;-90
2022/06/02 10:38:28;;;;;;;;;6.00;5.25;;;;;21.68;37.39;101593.25;2406783;28;45269;-90
2022/06/02 10:39:54;;;;;;;;;4.75;4.00;;;;;21.71;37.08;101595.69;2414225;28;44945;-90
2022/06/02 10:41:24;;;;;;;;;5.00;5.00;;;;;21.75;37.79;101594.53;2402345;28;48258;-89
2022/06/02 10:43:02;;;;;;;;;5.00;5.00;;;;;21.79;37.57;101598.72;2407438;28;45262;-90
2022/06/02 10:44:19;;;;;;;;;6.50;5.00;;;;;21.82;36.54;101592.31;2396439;28;45522;-94
2022/06/02 10:45:38;;;;;;;;;4.25;4.25;;;;;21.87;37.43;101589.34;2416261;28;45654;-91
2022/06/02 10:47:11;;;;;;;;;5.00;5.00;;;;;21.91;37.01;101593.50;2401543;28;47159;-92
2022/06/02 10:48:41;;;;;;;;;3.50;3.00;;;;;21.94;37.15;101590.63;2405325;28;44861;-93
2022/06/02 10:50:08;;;;;;;;;5.75;5.75;;;;;21.97;37.51;101595.78;2406650;28;47400;-93
2022/06/02 10:52:02;;;;;;;;;4.00;4.00;;;;;22.02;36.99;101585.63;2409476;28;44707;-90
2022/06/02 10:53:31;;;;;;;;;5.75;5.75;;;;;22.07;37.11;101595.16;2410167;28;49668;-93
2022/06/02 10:54:56;;;;;;;;;4.75;4.75;;;;;22.07;36.83;101593.34;2405715;28;45159;-92
2022/06/02 10:56:44;;;;;;;;;3.00;3.00;;;;;22.08;37.30;101600.38;2405727;28;47122;-92
2022/06/02 10:58:13;;;;;;;;;4.00;4.00;;;;;22.11;37.33;101602.00;2393537;28;44588;-89
2022/06/02 11:00:13;;;;;;;;;4.75;4.75;;;;;22.07;37.30;101597.81;2403239;28;46164;-93
2022/06/02 11:01:45;;;;;;;;;7.00;5.25;;;;;22.05;37.42;101595.22;2400919;28;45320;-91
2022/06/02 11:03:17;;;;;;;;;3.00;3.00;;;;;22.05;37.02;101591.72;2398932;28;47587;-90
2022/06/02 11:05:03;;;;;;;;;3.25;3.25;;;;;22.02;36.77;101596.34;2403512;28;45250;-92
2022/06/02 11:06:39;;;;;;;;;6.75;4.50;;;;;22.03;37.42;101587.31;2402364;28;47139;-90
2022/06/02 11:08:11;;;;;;;;;4.00;4.00;;;;;22.08;36.98;101584.31;2399400;28;45361;-92
2022/06/02 11:09:50;;;;;;;;;5.75;5.75;;;;;22.10;37.31;101568.19;2403419;28;45451;-90
2022/06/02 11:11:00;;;;;;;;;4.75;4.25;;;;;22.12;37.12;101569.78;2398431;28;45301;-90
2022/06/02 11:12:35;;;;;;;;;5.00;4.75;;;;;22.15;37.33;101568.69;2402836;28;48445;-90
2022/06/02 11:13:54;;;;;;;;;5.00;5.00;;;;;22.18;37.52;101571.16;2402540;28;45252;-92
2022/06/02 11:15:29;;;;;;;;;6.00;4.25;;;;;22.17;36.48;101564.09;2403294;28;45284;-91
2022/06/02 11:17:24;;;;;;;;;4.00;4.00;;;;;22.22;36.46;101561.97;2403322;28;45226;-92
2022/06/02 11:18:35;;;;;;;;;4.00;3.00;;;;;22.28;36.68;101557.13;2411781;28;47441;-91
2022/06/02 11:20:23;;;;;;;;;5.75;5.00;;;;;22.32;36.62;101561.31;2408334;28;45230;-94
2022/06/02 11:22:05;;;;;;;;;5.00;4.00;;;;;22.35;37.10;101561.06;2409478;28;46571;-91
2022/06/02 11:23:47;;;;;;;;;2.25;2.25;;;;;22.36;36.32;101561.00;2407132;28;45296;-90
2022/06/02 11:25:20;;;;;;;;;5.00;4.00;;;;;22.38;35.74;101555.50;2400155;28;46538;-91
2022/06/02 11:27:01;;;;;;;;;3.75;3.75;;;;;22.38;36.32;101550.16;2366646;28;45473;-92
2022/06/02 11:28:27;;;;;;;;;3.50;3.50;;;;;22.40;35.56;101555.41;2401994;28;47877;-91
2022/06/02 11:29:52;;;;;;;;;4.25;4.25;;;;;22.40;36.17;101553.56;2408283;28;45410;-90
2022/06/02 11:31:11;;;;;;;;;3.25;3.25;;;;;22.39;35.55;101565.28;2411788;28;47040;-92
2022/06/02 11:32:42;;;;;;;;;4.00;4.00;;;;;22.38;36.58;101563.53;2393993;28;45312;-94
2022/06/02 11:33:58;;;;;;;;;3.75;3.75;;;;;22.38;36.67;101563.53;2390804;28;45548;-91
2022/06/02 11:35:25;;;;;;;;;4.25;4.25;;;;;22.39;36.46;101559.91;2412338;28;45293;-94
2022/06/02 11:36:59;;;;;;;;;4.00;4.00;;;;;22.40;36.76;101550.06;2410012;28;48385;-93
2022/06/02 11:38:09;;;;;;;;;5.00;4.75;;;;;22.41;36.27;101555.31;2408694;28;44913;-93
2022/06/02 11:39:33;;;;;;;;;4.00;4.00;;;;;22.39;36.36;101545.66;2414307;28;46581;-94
2022/06/02 11:41:18;;;;;;;;;4.50;3.25;;;;;22.39;36.58;101540.31;2408282;28;44725;-91
2022/06/02 11:43:00;;;;;;;;;3.00;3.00;;;;;22.38;36.44;101552.84;2411925;28;46560;-92
2022/06/02 11:44:19;;;;;;;;;4.00;4.00;;;;;22.36;36.45;101544.06;2405535;28;45328;-91
2022/06/02 11:45:41;;;;;;;;;2.75;2.75;;;;;22.33;36.43;101553.16;2414679;28;47335;-93